Time;durP1;ratioP1;P1;durP2;ratioP2;P2;SDS_P1;SDS_P2;PMS_P1;PMS_P2;Temp;Humidity;BMP_temperature;BMP_pressure;BME280_temperature;BME280_humidity;BME280_pressure;Samples;Min_cycle;Max_cycle;Signal;HPM_P1;HPM_P2
2021/08/05 00:00:47;;;;;;;22.73;19.50;;;;;;;;;;3541916;40;20507;-85
2021/08/05 00:03:13;;;;;;;19.70;17.90;;;;;;;;;;3551093;40;20423;-85
2021/08/05 00:05:40;;;;;;;18.37;16.63;;;;;;;;;;3556775;40;20387;-84
2021/08/05 00:08:06;;;;;;;18.87;17.00;;;;;;;;;;3539502;40;20429;-85
2021/08/05 00:10:33;;;;;;;19.70;17.70;;;;;;;;;;3542927;40;20435;-85
2021/08/05 00:13:02;;;;;;;18.53;16.83;;;;;;;;;;3575031;40;20420;-85
2021/08/05 00:15:28;;;;;;;20.10;17.90;;;;;;;;;;3567106;40;20428;-85
2021/08/05 00:17:54;;;;;;;21.63;18.20;;;;;;;;;;3563462;40;20423;-85
2021/08/05 00:20:20;;;;;;;18.17;16.03;;;;;;;;;;3558342;40;21047;-85
2021/08/05 00:22:46;;;;;;;21.53;15.73;;;;;;;;;;3586481;40;21238;-84
2021/08/05 00:25:12;;;;;;;18.20;16.60;;;;;;;;;;3575194;39;20436;-85
2021/08/05 00:27:39;;;;;;;16.50;15.13;;;;;;;;;;3602367;39;20567;-86
2021/08/05 00:30:08;;;;;;;18.60;16.70;;;;;;;;;;3591879;40;20417;-86
2021/08/05 00:32:34;;;;;;;18.40;16.57;;;;;;;;;;3583185;40;21273;-85
2021/08/05 00:35:00;;;;;;;16.57;14.87;;;;;;;;;;3583848;40;20452;-85
2021/08/05 00:37:26;;;;;;;20.10;17.47;;;;;;;;;;3587766;40;20499;-84
2021/08/05 00:39:52;;;;;;;17.93;16.10;;;;;;;;;;3611714;22;20484;-82
2021/08/05 00:42:19;;;;;;;16.73;15.13;;;;;;;;;;3574480;40;20417;-81
2021/08/05 00:44:45;;;;;;;19.50;17.50;;;;;;;;;;3571700;40;20517;-81
2021/08/05 00:47:11;;;;;;;20.43;17.00;;;;;;;;;;3582917;40;20489;-80
2021/08/05 00:49:38;;;;;;;18.53;16.70;;;;;;;;;;3574205;40;20403;-81
2021/08/05 00:52:05;;;;;;;22.30;17.93;;;;;;;;;;3570733;40;20417;-81
2021/08/05 00:54:31;;;;;;;20.30;18.30;;;;;;;;;;3583908;39;20393;-80
2021/08/05 00:56:57;;;;;;;18.80;16.90;;;;;;;;;;3571313;40;20826;-80
2021/08/05 00:59:24;;;;;;;20.00;18.07;;;;;;;;;;3582542;40;20465;-80
2021/08/05 01:02:02;;;;;;;19.83;17.83;;;;;;;;;;3581342;39;20505;-80
2021/08/05 01:04:31;;;;;;;18.90;17.20;;;;;;;;;;3602822;22;20493;-73
2021/08/05 01:07:06;;;;;;;19.30;17.30;;;;;;;;;;3567931;39;20440;-74
2021/08/05 01:09:33;;;;;;;20.10;17.53;;;;;;;;;;3576019;39;20471;-74
2021/08/05 01:12:05;;;;;;;18.87;16.63;;;;;;;;;;3572530;39;21132;-73
2021/08/05 01:14:35;;;;;;;21.20;19.10;;;;;;;;;;3572515;39;20419;-73
2021/08/05 01:17:02;;;;;;;20.37;18.47;;;;;;;;;;3571135;39;20483;-73
2021/08/05 01:19:28;;;;;;;22.93;20.57;;;;;;;;;;3571386;39;20427;-73
2021/08/05 01:22:00;;;;;;;23.87;21.70;;;;;;;;;;3571557;39;20445;-73
2021/08/05 01:24:27;;;;;;;24.30;21.90;;;;;;;;;;3570891;39;20556;-73
2021/08/05 01:26:55;;;;;;;25.17;22.67;;;;;;;;;;3577789;39;20448;-73
2021/08/05 01:29:21;;;;;;;23.87;21.50;;;;;;;;;;3573256;39;20555;-73
2021/08/05 01:31:49;;;;;;;26.20;23.50;;;;;;;;;;3572841;39;20416;-73
2021/08/05 01:34:16;;;;;;;23.37;20.90;;;;;;;;;;3570383;39;20527;-73
2021/08/05 01:36:44;;;;;;;23.90;21.20;;;;;;;;;;3571009;39;20774;-73
2021/08/05 01:39:10;;;;;;;24.43;21.90;;;;;;;;;;3571941;39;20820;-73
2021/08/05 01:41:37;;;;;;;23.40;20.53;;;;;;;;;;3571794;39;20481;-73
2021/08/05 01:44:05;;;;;;;23.13;20.20;;;;;;;;;;3575000;39;20390;-73
2021/08/05 01:46:31;;;;;;;23.80;21.40;;;;;;;;;;3573591;39;20472;-73
2021/08/05 01:48:58;;;;;;;22.90;20.60;;;;;;;;;;3576066;39;20410;-73
2021/08/05 01:51:24;;;;;;;24.30;20.90;;;;;;;;;;3575921;39;20854;-73
2021/08/05 01:53:51;;;;;;;23.20;20.83;;;;;;;;;;3572924;39;20419;-73
2021/08/05 01:56:21;;;;;;;20.03;17.90;;;;;;;;;;3573728;39;20502;-73
2021/08/05 01:58:47;;;;;;;21.60;19.50;;;;;;;;;;3575187;39;20748;-73
2021/08/05 02:01:13;;;;;;;21.40;18.97;;;;;;;;;;3576599;39;20421;-73
2021/08/05 02:03:39;;;;;;;21.97;19.67;;;;;;;;;;3574015;39;21150;-73
2021/08/05 02:06:08;;;;;;;21.60;19.40;;;;;;;;;;3583283;39;20424;-74
2021/08/05 02:08:40;;;;;;;21.93;19.30;;;;;;;;;;3583264;39;20415;-73
2021/08/05 02:11:06;;;;;;;23.07;20.50;;;;;;;;;;3567654;39;20422;-73
2021/08/05 02:13:40;;;;;;;20.53;18.53;;;;;;;;;;3583824;39;20414;-73
2021/08/05 02:16:08;;;;;;;19.00;17.10;;;;;;;;;;3583531;39;20391;-73
2021/08/05 02:18:35;;;;;;;19.47;17.53;;;;;;;;;;3582932;39;20404;-73
2021/08/05 02:21:02;;;;;;;20.10;17.00;;;;;;;;;;3575509;39;20492;-73
2021/08/05 02:23:29;;;;;;;18.07;16.40;;;;;;;;;;3586623;39;20408;-74
2021/08/05 02:25:56;;;;;;;18.90;17.13;;;;;;;;;;3575968;39;20451;-74
2021/08/05 02:28:23;;;;;;;19.40;17.70;;;;;;;;;;3574799;39;20402;-74
2021/08/05 02:30:53;;;;;;;19.53;17.67;;;;;;;;;;3572821;39;20401;-74
2021/08/05 02:33:21;;;;;;;21.20;18.97;;;;;;;;;;3583744;39;20785;-73
2021/08/05 02:35:47;;;;;;;20.07;18.00;;;;;;;;;;3584752;39;20810;-73
2021/08/05 02:38:13;;;;;;;20.80;18.80;;;;;;;;;;3574660;39;20422;-73
2021/08/05 02:40:40;;;;;;;21.20;19.00;;;;;;;;;;3582287;39;20459;-73
2021/08/05 02:43:08;;;;;;;22.17;19.43;;;;;;;;;;3584074;39;20431;-73
2021/08/05 02:45:35;;;;;;;20.43;18.33;;;;;;;;;;3573216;39;20937;-73
2021/08/05 02:48:02;;;;;;;20.73;18.73;;;;;;;;;;3569278;39;20424;-74
2021/08/05 02:50:29;;;;;;;19.47;17.47;;;;;;;;;;3573788;39;20424;-74
2021/08/05 02:52:55;;;;;;;18.77;16.90;;;;;;;;;;3582610;39;20448;-74
2021/08/05 02:55:23;;;;;;;21.03;18.83;;;;;;;;;;3582393;39;20411;-73
2021/08/05 02:57:49;;;;;;;24.77;20.77;;;;;;;;;;3582831;39;20520;-74
2021/08/05 03:00:15;;;;;;;23.53;21.00;;;;;;;;;;3572483;39;20476;-73
2021/08/05 03:02:42;;;;;;;23.93;20.70;;;;;;;;;;3579159;39;20443;-73
2021/08/05 03:05:09;;;;;;;24.17;21.63;;;;;;;;;;3564282;39;20429;-73
2021/08/05 03:07:35;;;;;;;21.03;18.67;;;;;;;;;;3578100;39;20464;-73
2021/08/05 03:10:01;;;;;;;23.03;19.93;;;;;;;;;;3573172;39;20394;-74
2021/08/05 03:12:27;;;;;;;26.50;20.80;;;;;;;;;;3578365;39;20410;-74
2021/08/05 03:14:53;;;;;;;26.13;20.50;;;;;;;;;;3578854;39;20872;-74
2021/08/05 03:17:19;;;;;;;21.60;19.50;;;;;;;;;;3578812;39;20427;-74
2021/08/05 03:19:45;;;;;;;21.63;19.47;;;;;;;;;;3577931;39;20423;-74
2021/08/05 03:22:11;;;;;;;34.60;20.87;;;;;;;;;;3563793;39;20443;-74
2021/08/05 03:24:37;;;;;;;22.47;20.10;;;;;;;;;;3568947;39;20655;-74
2021/08/05 03:27:03;;;;;;;19.00;17.20;;;;;;;;;;3568989;39;20420;-74
2021/08/05 03:29:29;;;;;;;19.13;17.23;;;;;;;;;;3569822;39;20464;-74
2021/08/05 03:31:55;;;;;;;19.47;17.50;;;;;;;;;;3570719;39;20545;-74
2021/08/05 03:34:21;;;;;;;18.93;17.03;;;;;;;;;;3570644;39;20407;-74
2021/08/05 03:36:47;;;;;;;31.17;19.97;;;;;;;;;;3577994;39;20428;-74
2021/08/05 03:39:13;;;;;;;20.83;17.50;;;;;;;;;;3578943;39;20407;-74
2021/08/05 03:41:39;;;;;;;20.43;18.20;;;;;;;;;;3579967;39;20858;-74
2021/08/05 03:44:05;;;;;;;18.47;16.20;;;;;;;;;;3568951;39;21062;-74
2021/08/05 03:46:31;;;;;;;19.17;17.17;;;;;;;;;;3570456;39;20413;-74
2021/08/05 03:48:57;;;;;;;19.53;17.60;;;;;;;;;;3577736;39;20423;-74
2021/08/05 03:51:23;;;;;;;24.30;19.60;;;;;;;;;;3570671;39;20409;-73
2021/08/05 03:53:49;;;;;;;19.90;17.63;;;;;;;;;;3573852;39;20419;-74
2021/08/05 03:56:15;;;;;;;18.73;16.80;;;;;;;;;;3571652;39;20521;-74
2021/08/05 03:58:41;;;;;;;20.10;18.00;;;;;;;;;;3577100;39;22812;-74
2021/08/05 04:01:07;;;;;;;19.07;17.07;;;;;;;;;;3579577;39;20389;-74
2021/08/05 04:03:34;;;;;;;18.53;16.73;;;;;;;;;;3560382;39;20419;-75
2021/08/05 04:06:00;;;;;;;20.03;18.03;;;;;;;;;;3579375;39;20422;-74
2021/08/05 04:08:27;;;;;;;19.33;16.83;;;;;;;;;;3572168;39;20593;-74
2021/08/05 04:10:53;;;;;;;19.63;16.77;;;;;;;;;;3571881;39;20391;-76
2021/08/05 04:13:19;;;;;;;19.40;17.13;;;;;;;;;;3583761;39;20419;-76
2021/08/05 04:15:45;;;;;;;18.30;16.43;;;;;;;;;;3580180;39;20400;-75
2021/08/05 04:18:11;;;;;;;23.13;18.90;;;;;;;;;;3578145;39;20886;-75
2021/08/05 04:20:38;;;;;;;18.03;16.33;;;;;;;;;;3570687;39;20807;-74
2021/08/05 04:23:04;;;;;;;19.13;16.43;;;;;;;;;;3578963;39;20402;-74
2021/08/05 04:25:30;;;;;;;17.67;15.87;;;;;;;;;;3576384;39;20470;-75
2021/08/05 04:27:56;;;;;;;18.30;16.50;;;;;;;;;;3575598;39;21166;-75
2021/08/05 04:30:22;;;;;;;22.40;16.40;;;;;;;;;;3580391;39;20437;-75
2021/08/05 04:32:48;;;;;;;19.70;17.70;;;;;;;;;;3567103;39;20415;-75
2021/08/05 04:35:14;;;;;;;19.13;17.30;;;;;;;;;;3583017;39;21186;-75
2021/08/05 04:37:56;;;;;;;20.00;18.20;;;;;;;;;;3583608;39;21130;-75
2021/08/05 04:40:23;;;;;;;21.43;16.43;;;;;;;;;;3574650;39;20698;-75
2021/08/05 04:42:49;;;;;;;18.47;16.57;;;;;;;;;;3576710;39;20405;-75
2021/08/05 04:45:15;;;;;;;17.63;15.93;;;;;;;;;;3584282;39;20557;-75
2021/08/05 04:48:01;;;;;;;21.27;17.30;;;;;;;;;;3582678;39;20408;-75
2021/08/05 04:50:29;;;;;;;19.30;17.30;;;;;;;;;;3576310;39;20397;-75
2021/08/05 04:52:56;;;;;;;18.43;16.20;;;;;;;;;;3583383;39;21513;-75
2021/08/05 04:55:22;;;;;;;18.67;16.77;;;;;;;;;;3581678;39;20509;-75
2021/08/05 04:57:59;;;;;;;19.83;17.90;;;;;;;;;;3570288;39;21690;-77
2021/08/05 05:00:26;;;;;;;18.77;16.77;;;;;;;;;;3578410;39;20408;-76
2021/08/05 05:02:53;;;;;;;20.67;18.60;;;;;;;;;;3581302;39;20408;-74
2021/08/05 05:05:19;;;;;;;19.23;17.43;;;;;;;;;;3584965;39;20454;-74
2021/08/05 05:07:45;;;;;;;17.30;15.60;;;;;;;;;;3584240;39;20431;-74
2021/08/05 05:10:11;;;;;;;17.83;16.00;;;;;;;;;;3585091;39;20394;-75
2021/08/05 05:12:38;;;;;;;18.43;16.60;;;;;;;;;;3577755;39;20473;-76
2021/08/05 05:15:04;;;;;;;18.63;16.60;;;;;;;;;;3587382;39;20408;-75
2021/08/05 05:17:30;;;;;;;19.87;17.87;;;;;;;;;;3570573;39;20743;-77
2021/08/05 05:19:56;;;;;;;20.57;16.00;;;;;;;;;;3589371;39;20764;-75
2021/08/05 05:22:22;;;;;;;19.53;17.40;;;;;;;;;;3578797;39;20810;-74
2021/08/05 05:24:48;;;;;;;18.33;16.53;;;;;;;;;;3587719;39;20506;-74
2021/08/05 05:27:14;;;;;;;21.60;16.37;;;;;;;;;;3576380;39;20521;-74
2021/08/05 05:29:40;;;;;;;40.70;20.10;;;;;;;;;;3582100;39;20720;-76
2021/08/05 05:32:07;;;;;;;21.77;17.27;;;;;;;;;;3584219;39;20429;-74
2021/08/05 05:34:33;;;;;;;18.47;15.40;;;;;;;;;;3578483;39;20424;-74
2021/08/05 05:36:59;;;;;;;20.97;16.50;;;;;;;;;;3582107;39;20468;-74
2021/08/05 05:39:25;;;;;;;18.23;16.53;;;;;;;;;;3572300;39;20402;-74
2021/08/05 05:41:51;;;;;;;20.23;18.13;;;;;;;;;;3587735;39;20499;-74
2021/08/05 05:44:17;;;;;;;19.93;17.87;;;;;;;;;;3587754;39;20448;-74
2021/08/05 05:46:43;;;;;;;20.33;18.20;;;;;;;;;;3588439;39;20413;-74
2021/08/05 05:49:09;;;;;;;23.10;16.03;;;;;;;;;;3585956;39;20838;-74
2021/08/05 05:51:35;;;;;;;20.83;17.20;;;;;;;;;;3573730;39;20412;-74
2021/08/05 05:54:01;;;;;;;19.10;17.07;;;;;;;;;;3584020;39;20404;-74
2021/08/05 05:56:28;;;;;;;19.00;17.00;;;;;;;;;;3578043;39;20726;-74
2021/08/05 05:58:54;;;;;;;20.17;18.27;;;;;;;;;;3578238;39;20396;-74
2021/08/05 06:01:19;;;;;;;20.10;16.27;;;;;;;;;;3577811;39;20419;-73
2021/08/05 06:03:45;;;;;;;25.10;19.67;;;;;;;;;;3587269;39;20714;-73
2021/08/05 06:06:11;;;;;;;26.73;23.97;;;;;;;;;;3580095;40;20434;-73
2021/08/05 06:08:37;;;;;;;27.30;23.57;;;;;;;;;;3571175;40;20768;-73
2021/08/05 06:11:03;;;;;;;28.40;25.57;;;;;;;;;;3575921;40;20409;-73
2021/08/05 06:13:29;;;;;;;27.77;24.77;;;;;;;;;;3578235;40;20429;-73
2021/08/05 06:15:55;;;;;;;30.60;27.40;;;;;;;;;;3576974;40;20418;-75
2021/08/05 06:18:21;;;;;;;35.40;30.30;;;;;;;;;;3574305;39;21194;-73
2021/08/05 06:20:47;;;;;;;38.37;32.40;;;;;;;;;;3577690;39;20459;-73
2021/08/05 06:23:13;;;;;;;31.50;28.20;;;;;;;;;;3575781;39;20479;-73
2021/08/05 06:25:47;;;;;;;34.43;29.30;;;;;;;;;;3569917;40;20426;-74
2021/08/05 06:28:13;;;;;;;37.30;30.77;;;;;;;;;;3578630;40;20707;-73
2021/08/05 06:30:39;;;;;;;36.10;30.13;;;;;;;;;;3582484;40;20424;-73
2021/08/05 06:33:05;;;;;;;38.23;30.50;;;;;;;;;;3578367;40;20900;-73
2021/08/05 06:35:31;;;;;;;42.07;32.37;;;;;;;;;;3579642;40;20430;-73
2021/08/05 06:37:57;;;;;;;39.03;31.37;;;;;;;;;;3579223;39;20466;-73
2021/08/05 06:40:23;;;;;;;43.30;33.30;;;;;;;;;;3579184;39;20905;-73
2021/08/05 06:42:49;;;;;;;38.23;34.13;;;;;;;;;;3578883;39;20449;-73
2021/08/05 06:45:15;;;;;;;37.13;32.43;;;;;;;;;;3579553;39;20405;-73
2021/08/05 06:47:46;;;;;;;35.40;31.70;;;;;;;;;;3578046;39;20398;-73
2021/08/05 06:50:12;;;;;;;36.47;32.60;;;;;;;;;;3582491;40;20412;-73
2021/08/05 06:52:39;;;;;;;31.73;28.50;;;;;;;;;;3578047;40;20401;-73
2021/08/05 06:55:05;;;;;;;33.90;28.83;;;;;;;;;;3578474;40;20852;-73
2021/08/05 06:57:31;;;;;;;34.97;31.20;;;;;;;;;;3578746;39;20396;-73
2021/08/05 06:59:58;;;;;;;30.87;27.57;;;;;;;;;;3577816;39;20436;-73
2021/08/05 07:02:24;;;;;;;32.57;29.07;;;;;;;;;;3578630;39;20541;-73
2021/08/05 07:04:51;;;;;;;30.90;27.97;;;;;;;;;;3577690;39;20799;-73
2021/08/05 07:07:17;;;;;;;31.93;28.40;;;;;;;;;;3577191;39;20796;-73
2021/08/05 07:09:43;;;;;;;30.60;26.90;;;;;;;;;;3578194;40;20707;-73
2021/08/05 07:12:09;;;;;;;40.77;25.30;;;;;;;;;;3581586;40;20729;-73
2021/08/05 07:14:35;;;;;;;29.27;26.23;;;;;;;;;;3578586;39;20858;-73
2021/08/05 07:17:01;;;;;;;28.70;25.90;;;;;;;;;;3578645;40;20393;-73
2021/08/05 07:19:29;;;;;;;29.97;26.77;;;;;;;;;;3578523;39;20832;-73
2021/08/05 07:21:55;;;;;;;27.83;24.80;;;;;;;;;;3578866;40;20404;-73
2021/08/05 07:24:21;;;;;;;30.30;27.40;;;;;;;;;;3578621;39;20410;-73
2021/08/05 07:26:47;;;;;;;33.00;29.60;;;;;;;;;;3577946;40;20779;-73
2021/08/05 07:29:13;;;;;;;34.30;30.77;;;;;;;;;;3578174;39;20447;-73
2021/08/05 07:31:39;;;;;;;35.87;32.27;;;;;;;;;;3577400;40;20413;-73
2021/08/05 07:34:05;;;;;;;33.80;30.10;;;;;;;;;;3576963;40;20817;-73
2021/08/05 07:36:32;;;;;;;33.60;30.30;;;;;;;;;;3577373;40;20389;-73
2021/08/05 07:38:58;;;;;;;35.43;31.80;;;;;;;;;;3577113;39;20410;-73
2021/08/05 07:41:24;;;;;;;34.33;31.30;;;;;;;;;;3577743;40;20412;-73
2021/08/05 07:43:50;;;;;;;34.87;31.63;;;;;;;;;;3577924;40;20471;-73
2021/08/05 07:46:16;;;;;;;33.43;30.20;;;;;;;;;;3577332;39;20410;-73
2021/08/05 07:48:42;;;;;;;32.60;29.50;;;;;;;;;;3575703;40;20413;-74
2021/08/05 07:51:08;;;;;;;33.20;30.20;;;;;;;;;;3578133;40;20431;-73
2021/08/05 07:53:35;;;;;;;38.60;28.90;;;;;;;;;;3577235;39;20520;-73
2021/08/05 07:56:01;;;;;;;30.27;27.47;;;;;;;;;;3576672;40;20452;-73
2021/08/05 07:58:27;;;;;;;28.53;25.77;;;;;;;;;;3576870;40;20468;-73
2021/08/05 08:00:53;;;;;;;27.63;24.97;;;;;;;;;;3580385;40;20443;-73
2021/08/05 08:03:19;;;;;;;26.20;23.90;;;;;;;;;;3577190;40;20752;-73
2021/08/05 08:05:45;;;;;;;29.83;27.13;;;;;;;;;;3585736;39;20736;-73
2021/08/05 08:08:11;;;;;;;28.17;25.40;;;;;;;;;;3587275;39;20407;-73
2021/08/05 08:10:38;;;;;;;30.57;27.70;;;;;;;;;;3587683;39;20496;-73
2021/08/05 08:13:05;;;;;;;32.67;29.23;;;;;;;;;;3587633;39;20482;-73
2021/08/05 08:15:31;;;;;;;34.80;30.83;;;;;;;;;;3578826;39;20437;-73
2021/08/05 08:17:57;;;;;;;29.73;26.73;;;;;;;;;;3587809;39;20458;-73
2021/08/05 08:20:23;;;;;;;31.53;28.50;;;;;;;;;;3578732;39;20427;-73
2021/08/05 08:22:49;;;;;;;28.63;25.73;;;;;;;;;;3576948;39;20457;-73
2021/08/05 08:25:16;;;;;;;27.67;25.23;;;;;;;;;;3570568;39;20395;-73
2021/08/05 08:27:42;;;;;;;28.93;26.00;;;;;;;;;;3587170;39;20429;-73
2021/08/05 08:30:09;;;;;;;29.13;26.60;;;;;;;;;;3587602;39;20400;-73
2021/08/05 08:32:36;;;;;;;29.90;27.10;;;;;;;;;;3586496;39;20817;-73
2021/08/05 08:35:03;;;;;;;31.27;28.50;;;;;;;;;;3587912;39;20388;-73
2021/08/05 08:37:29;;;;;;;32.50;29.70;;;;;;;;;;3586283;39;20402;-73
2021/08/05 08:39:55;;;;;;;30.97;27.80;;;;;;;;;;3587767;39;20454;-74
2021/08/05 08:42:21;;;;;;;31.60;28.73;;;;;;;;;;3569948;39;20429;-73
2021/08/05 08:44:47;;;;;;;30.87;28.30;;;;;;;;;;3586278;39;20439;-73
2021/08/05 08:47:13;;;;;;;33.93;30.93;;;;;;;;;;3577518;39;20411;-73
2021/08/05 08:49:42;;;;;;;31.07;28.40;;;;;;;;;;3587271;39;20410;-73
2021/08/05 08:52:08;;;;;;;29.27;26.40;;;;;;;;;;3578063;39;20434;-73
2021/08/05 08:54:40;;;;;;;33.23;30.03;;;;;;;;;;3569934;39;20407;-73
2021/08/05 08:57:06;;;;;;;35.43;32.50;;;;;;;;;;3587584;39;21187;-73
2021/08/05 08:59:32;;;;;;;34.30;31.20;;;;;;;;;;3579368;39;20797;-73
2021/08/05 09:01:59;;;;;;;31.30;28.60;;;;;;;;;;3565626;39;20815;-73
2021/08/05 09:04:25;;;;;;;27.67;25.30;;;;;;;;;;3579388;39;20522;-74
2021/08/05 09:06:51;;;;;;;28.20;25.60;;;;;;;;;;3588554;39;20419;-74
2021/08/05 09:09:17;;;;;;;22.90;21.00;;;;;;;;;;3579712;39;20419;-73
2021/08/05 09:11:43;;;;;;;21.10;19.30;;;;;;;;;;3588487;39;20451;-73
2021/08/05 09:14:10;;;;;;;21.10;19.10;;;;;;;;;;3579170;39;20411;-74
2021/08/05 09:16:36;;;;;;;21.33;19.77;;;;;;;;;;3588282;39;20477;-73
2021/08/05 09:19:14;;;;;;;22.27;20.57;;;;;;;;;;3589310;39;20501;-73
2021/08/05 09:22:10;;;;;;;23.17;21.10;;;;;;;;;;3588397;39;20510;-73
2021/08/05 09:24:36;;;;;;;19.53;17.53;;;;;;;;;;3579051;39;20714;-74
2021/08/05 09:27:06;;;;;;;24.07;19.40;;;;;;;;;;3578429;39;20450;-74
2021/08/05 09:29:42;;;;;;;20.20;18.50;;;;;;;;;;3588675;39;20407;-74
2021/08/05 09:32:08;;;;;;;18.23;16.63;;;;;;;;;;3574353;39;20483;-74
2021/08/05 09:34:36;;;;;;;16.37;14.80;;;;;;;;;;3583634;39;20461;-73
2021/08/05 09:37:06;;;;;;;19.50;17.80;;;;;;;;;;3582900;39;20457;-73
2021/08/05 09:39:34;;;;;;;23.67;21.40;;;;;;;;;;3588848;39;20410;-73
2021/08/05 09:42:07;;;;;;;20.80;18.70;;;;;;;;;;3579237;39;20903;-73
2021/08/05 09:44:33;;;;;;;20.60;18.57;;;;;;;;;;3583778;39;20405;-73
2021/08/05 09:47:03;;;;;;;21.43;19.53;;;;;;;;;;3579468;39;20800;-73
2021/08/05 09:49:29;;;;;;;21.07;19.00;;;;;;;;;;3579966;39;20413;-73
2021/08/05 09:51:59;;;;;;;24.10;21.80;;;;;;;;;;3579638;39;20436;-73
2021/08/05 09:54:48;;;;;;;24.10;22.03;;;;;;;;;;3587398;39;20814;-72
2021/08/05 09:57:22;;;;;;;23.17;21.13;;;;;;;;;;3591905;39;20430;-74
2021/08/05 09:59:58;;;;;;;23.20;21.07;;;;;;;;;;3583850;39;20803;-73
2021/08/05 10:02:25;;;;;;;22.30;20.30;;;;;;;;;;3588312;39;20397;-73
2021/08/05 10:04:52;;;;;;;23.17;21.20;;;;;;;;;;3597734;39;20823;-73
2021/08/05 10:07:18;;;;;;;22.00;20.10;;;;;;;;;;3588576;39;20414;-73
2021/08/05 10:09:44;;;;;;;21.73;19.83;;;;;;;;;;3598656;39;20415;-73
2021/08/05 10:12:13;;;;;;;23.90;21.80;;;;;;;;;;3598134;39;21572;-73
2021/08/05 10:14:40;;;;;;;20.50;18.97;;;;;;;;;;3593601;39;20401;-73
2021/08/05 10:17:06;;;;;;;22.90;20.90;;;;;;;;;;3597738;39;20461;-73
2021/08/05 10:19:36;;;;;;;21.30;19.77;;;;;;;;;;3588947;39;20563;-73
2021/08/05 10:22:02;;;;;;;19.47;18.07;;;;;;;;;;3589530;39;20485;-73
2021/08/05 10:24:29;;;;;;;20.17;18.57;;;;;;;;;;3599967;39;21438;-73
2021/08/05 10:26:55;;;;;;;19.67;18.07;;;;;;;;;;3598880;39;20405;-73
2021/08/05 10:29:21;;;;;;;21.53;19.63;;;;;;;;;;3589947;39;20416;-72
2021/08/05 10:31:48;;;;;;;20.70;18.77;;;;;;;;;;3590234;39;20424;-73
2021/08/05 10:34:14;;;;;;;19.37;17.97;;;;;;;;;;3585098;39;20399;-73
2021/08/05 10:36:41;;;;;;;20.90;19.30;;;;;;;;;;3590027;39;20419;-73
2021/08/05 10:39:07;;;;;;;18.20;16.70;;;;;;;;;;3599557;39;20695;-73
2021/08/05 10:41:33;;;;;;;22.10;20.00;;;;;;;;;;3599266;39;21215;-73
2021/08/05 10:44:02;;;;;;;20.60;18.80;;;;;;;;;;3600093;39;20830;-73
2021/08/05 10:46:33;;;;;;;21.87;19.87;;;;;;;;;;3598771;39;20810;-73
2021/08/05 10:49:06;;;;;;;21.47;19.77;;;;;;;;;;3580772;39;20482;-73
2021/08/05 10:51:36;;;;;;;21.57;19.47;;;;;;;;;;3589997;39;20427;-73
2021/08/05 10:54:02;;;;;;;21.33;19.37;;;;;;;;;;3584412;39;20491;-73
2021/08/05 10:56:30;;;;;;;21.90;20.20;;;;;;;;;;3581657;39;20875;-73
2021/08/05 10:59:02;;;;;;;22.40;20.37;;;;;;;;;;3598348;39;20421;-73
2021/08/05 11:01:51;;;;;;;24.40;22.10;;;;;;;;;;3598675;39;20462;-72
2021/08/05 11:04:36;;;;;;;21.67;20.07;;;;;;;;;;3589040;39;20556;-73
2021/08/05 11:07:32;;;;;;;18.30;16.80;;;;;;;;;;3597974;39;20422;-73
2021/08/05 11:10:17;;;;;;;21.43;19.57;;;;;;;;;;3584640;39;21263;-73
2021/08/05 11:12:49;;;;;;;20.17;18.67;;;;;;;;;;3598287;39;20512;-73
2021/08/05 11:15:29;;;;;;;22.70;20.80;;;;;;;;;;3588955;39;20849;-73
2021/08/05 11:18:08;;;;;;;18.90;17.40;;;;;;;;;;3588653;39;21014;-73
2021/08/05 11:20:35;;;;;;;17.90;16.50;;;;;;;;;;3598778;39;20413;-73
2021/08/05 11:23:01;;;;;;;15.97;14.57;;;;;;;;;;3598128;39;20460;-73
2021/08/05 11:25:47;;;;;;;15.67;14.30;;;;;;;;;;3598453;39;20461;-73
2021/08/05 11:28:23;;;;;;;15.60;14.50;;;;;;;;;;3584332;39;20402;-73
2021/08/05 11:30:53;;;;;;;16.40;15.20;;;;;;;;;;3593081;39;20410;-73
2021/08/05 11:33:43;;;;;;;17.20;15.53;;;;;;;;;;3598462;39;20521;-73
2021/08/05 11:39:02;;;;;;;15.03;13.83;;;;;;;;;;3598483;39;20398;-73
2021/08/05 11:41:55;;;;;;;13.97;12.77;;;;;;;;;;3587866;39;20420;-73
2021/08/05 11:44:32;;;;;;;13.37;12.17;;;;;;;;;;3560806;40;20936;-73
2021/08/05 11:47:17;;;;;;;10.70;9.90;;;;;;;;;;3560495;40;20453;-73
2021/08/05 11:49:43;;;;;;;11.63;10.50;;;;;;;;;;3560992;40;20422;-73
2021/08/05 11:52:09;;;;;;;10.73;10.03;;;;;;;;;;3559991;40;20630;-73
2021/08/05 11:54:36;;;;;;;12.17;11.17;;;;;;;;;;3552250;40;20722;-73
2021/08/05 11:57:06;;;;;;;13.17;12.07;;;;;;;;;;3560372;40;20422;-73
2021/08/05 11:59:35;;;;;;;9.97;9.17;;;;;;;;;;3561281;40;20833;-73
2021/08/05 12:02:14;;;;;;;9.83;9.00;;;;;;;;;;3552317;40;20422;-73
2021/08/05 12:04:41;;;;;;;10.20;9.60;;;;;;;;;;3560697;40;20477;-73
2021/08/05 12:07:48;;;;;;;9.03;8.33;;;;;;;;;;3560624;40;20444;-73
2021/08/05 12:10:21;;;;;;;7.73;7.13;;;;;;;;;;3542456;40;20787;-73
2021/08/05 12:12:54;;;;;;;7.80;7.30;;;;;;;;;;3542037;40;20422;-73
2021/08/05 12:15:25;;;;;;;7.20;6.70;;;;;;;;;;3550434;40;20737;-73
2021/08/05 12:17:52;;;;;;;6.97;6.47;;;;;;;;;;3550781;40;20417;-73
2021/08/05 12:20:20;;;;;;;7.47;7.07;;;;;;;;;;3554249;40;20499;-73
2021/08/05 12:22:50;;;;;;;9.13;8.53;;;;;;;;;;3576919;39;20437;-73
2021/08/05 12:25:24;;;;;;;8.30;7.80;;;;;;;;;;3575154;40;20797;-73
2021/08/05 12:27:55;;;;;;;10.90;10.20;;;;;;;;;;3576200;40;20461;-73
2021/08/05 12:30:21;;;;;;;9.70;8.93;;;;;;;;;;3568376;40;20958;-73
2021/08/05 12:32:56;;;;;;;8.23;7.73;;;;;;;;;;3577745;40;20420;-73
2021/08/05 12:35:22;;;;;;;8.40;7.80;;;;;;;;;;3568427;40;20427;-73
2021/08/05 12:38:02;;;;;;;9.23;8.60;;;;;;;;;;3577178;39;20510;-73
2021/08/05 12:40:28;;;;;;;9.63;8.93;;;;;;;;;;3572872;39;20438;-73
2021/08/05 12:42:55;;;;;;;9.50;9.00;;;;;;;;;;3576683;39;21005;-73
2021/08/05 12:45:21;;;;;;;7.97;7.47;;;;;;;;;;3598927;39;20824;-73
2021/08/05 12:47:47;;;;;;;8.43;7.73;;;;;;;;;;3581110;39;20425;-72
2021/08/05 12:50:13;;;;;;;8.43;7.60;;;;;;;;;;3590308;39;20402;-72
2021/08/05 12:52:40;;;;;;;8.20;7.70;;;;;;;;;;3599236;39;21222;-72
2021/08/05 12:55:08;;;;;;;7.57;7.07;;;;;;;;;;3589920;39;20833;-73
2021/08/05 12:57:38;;;;;;;8.73;8.03;;;;;;;;;;3589702;39;21021;-73
2021/08/05 13:00:06;;;;;;;19.27;17.90;;;;;;;;;;3599373;39;20498;-73
2021/08/05 13:02:32;;;;;;;11.80;11.00;;;;;;;;;;3589818;39;20518;-73
2021/08/05 13:05:16;;;;;;;12.10;11.10;;;;;;;;;;3598506;39;20433;-73
2021/08/05 13:07:43;;;;;;;11.57;10.63;;;;;;;;;;3598846;39;20394;-73
2021/08/05 13:10:09;;;;;;;11.97;11.13;;;;;;;;;;3593925;39;20770;-73
2021/08/05 13:12:35;;;;;;;11.30;10.50;;;;;;;;;;3590377;39;20416;-73
2021/08/05 13:15:20;;;;;;;11.97;10.23;;;;;;;;;;3599488;39;20451;-73
2021/08/05 13:17:46;;;;;;;10.57;9.77;;;;;;;;;;3600017;39;20379;-73
2021/08/05 13:20:12;;;;;;;9.97;9.27;;;;;;;;;;3589906;39;20499;-73
2021/08/05 13:22:49;;;;;;;11.07;10.17;;;;;;;;;;3589365;39;20820;-72
2021/08/05 13:25:17;;;;;;;11.20;10.33;;;;;;;;;;3589924;39;20418;-73
2021/08/05 13:27:44;;;;;;;10.33;9.63;;;;;;;;;;3585359;39;20487;-73
2021/08/05 13:30:18;;;;;;;11.10;10.20;;;;;;;;;;3598917;39;20406;-73
2021/08/05 13:32:45;;;;;;;10.47;9.67;;;;;;;;;;3599752;39;20406;-73
2021/08/05 13:35:11;;;;;;;14.00;13.00;;;;;;;;;;3590423;39;20775;-73
2021/08/05 13:37:41;;;;;;;13.50;12.60;;;;;;;;;;3590437;39;20409;-73
2021/08/05 13:40:08;;;;;;;10.40;9.70;;;;;;;;;;3598561;39;20424;-73
2021/08/05 13:42:38;;;;;;;10.90;10.10;;;;;;;;;;3598770;39;20413;-73
2021/08/05 13:45:05;;;;;;;9.93;9.20;;;;;;;;;;3598729;39;21000;-73
2021/08/05 13:47:31;;;;;;;9.47;8.77;;;;;;;;;;3598245;39;20389;-72
2021/08/05 13:50:11;;;;;;;11.30;10.40;;;;;;;;;;3589640;39;20426;-72
2021/08/05 13:52:37;;;;;;;11.80;10.63;;;;;;;;;;3598693;39;20428;-72
2021/08/05 13:55:03;;;;;;;11.00;10.30;;;;;;;;;;3599508;39;21188;-72
2021/08/05 13:57:29;;;;;;;11.20;10.30;;;;;;;;;;3592947;39;20390;-73
2021/08/05 13:59:55;;;;;;;10.90;10.10;;;;;;;;;;3599492;39;20505;-73
2021/08/05 14:02:21;;;;;;;11.17;10.47;;;;;;;;;;3598564;39;20414;-73
2021/08/05 14:04:47;;;;;;;11.97;11.13;;;;;;;;;;3597991;39;20434;-73
2021/08/05 14:07:13;;;;;;;10.10;9.17;;;;;;;;;;3589007;39;20422;-73
2021/08/05 14:09:39;;;;;;;10.20;9.50;;;;;;;;;;3589525;39;20812;-73
2021/08/05 14:12:07;;;;;;;10.97;10.13;;;;;;;;;;3593256;39;20407;-73
2021/08/05 14:14:33;;;;;;;11.13;10.33;;;;;;;;;;3597694;39;20511;-73
2021/08/05 14:16:59;;;;;;;10.30;9.60;;;;;;;;;;3588953;39;20395;-73
2021/08/05 14:19:25;;;;;;;10.03;9.10;;;;;;;;;;3589449;39;20464;-73
2021/08/05 14:21:51;;;;;;;8.77;8.10;;;;;;;;;;3598858;39;20847;-73
2021/08/05 14:24:19;;;;;;;7.93;7.40;;;;;;;;;;3598746;39;20435;-73
2021/08/05 14:26:46;;;;;;;9.77;9.23;;;;;;;;;;3597945;39;20403;-73